sensor_id;sensor_type;location;lat;lon;timestamp;temperature;humidity
51175;DHT22;37240;50.104;20.010;2023-10-08T00:00:26;19.00;99.90
51175;DHT22;37240;50.104;20.010;2023-10-08T00:05:27;19.00;99.90
51175;DHT22;37240;50.104;20.010;2023-10-08T00:10:27;19.00;99.90
51175;DHT22;37240;50.104;20.010;2023-10-08T00:15:28;18.90;99.90
51175;DHT22;37240;50.104;20.010;2023-10-08T00:20:28;18.80;99.90
51175;DHT22;37240;50.104;20.010;2023-10-08T00:25:29;18.70;99.90
51175;DHT22;37240;50.104;20.010;2023-10-08T00:30:32;18.60;99.90
51175;DHT22;37240;50.104;20.010;2023-10-08T00:35:37;18.50;99.90
51175;DHT22;37240;50.104;20.010;2023-10-08T00:40:38;18.40;99.90
51175;DHT22;37240;50.104;20.010;2023-10-08T00:45:39;18.40;99.90
51175;DHT22;37240;50.104;20.010;2023-10-08T00:50:40;18.40;99.90
51175;DHT22;37240;50.104;20.010;2023-10-08T00:55:41;18.40;99.90
51175;DHT22;37240;50.104;20.010;2023-10-08T01:00:41;18.10;99.90
51175;DHT22;37240;50.104;20.010;2023-10-08T01:05:42;17.80;99.90
51175;DHT22;37240;50.104;20.010;2023-10-08T01:10:42;17.80;99.90
51175;DHT22;37240;50.104;20.010;2023-10-08T01:15:43;17.70;99.90
51175;DHT22;37240;50.104;20.010;2023-10-08T01:20:44;17.50;99.90
51175;DHT22;37240;50.104;20.010;2023-10-08T01:25:44;17.20;99.90
51175;DHT22;37240;50.104;20.010;2023-10-08T01:30:45;17.10;99.90
51175;DHT22;37240;50.104;20.010;2023-10-08T01:35:45;17.10;99.90
51175;DHT22;37240;50.104;20.010;2023-10-08T01:40:46;17.00;99.90
51175;DHT22;37240;50.104;20.010;2023-10-08T01:45:46;16.70;99.90
51175;DHT22;37240;50.104;20.010;2023-10-08T01:50:47;16.50;99.90
51175;DHT22;37240;50.104;20.010;2023-10-08T01:55:47;16.40;99.90
51175;DHT22;37240;50.104;20.010;2023-10-08T02:00:49;16.30;99.90
51175;DHT22;37240;50.104;20.010;2023-10-08T02:05:50;16.20;99.90
51175;DHT22;37240;50.104;20.010;2023-10-08T02:10:50;16.00;99.90
51175;DHT22;37240;50.104;20.010;2023-10-08T02:15:51;16.00;99.90
51175;DHT22;37240;50.104;20.010;2023-10-08T02:20:52;15.80;99.90
51175;DHT22;37240;50.104;20.010;2023-10-08T02:25:53;15.80;99.90
51175;DHT22;37240;50.104;20.010;2023-10-08T02:30:53;15.80;99.90
51175;DHT22;37240;50.104;20.010;2023-10-08T02:35:54;15.70;99.90
51175;DHT22;37240;50.104;20.010;2023-10-08T02:40:54;15.70;99.90
51175;DHT22;37240;50.104;20.010;2023-10-08T02:45:55;15.70;99.90
51175;DHT22;37240;50.104;20.010;2023-10-08T02:50:55;15.60;99.90
51175;DHT22;37240;50.104;20.010;2023-10-08T02:55:56;15.60;99.90
51175;DHT22;37240;50.104;20.010;2023-10-08T03:00:56;15.50;99.90
51175;DHT22;37240;50.104;20.010;2023-10-08T03:05:57;15.50;99.90
51175;DHT22;37240;50.104;20.010;2023-10-08T03:10:57;15.50;99.90
51175;DHT22;37240;50.104;20.010;2023-10-08T03:15:58;15.30;99.20
51175;DHT22;37240;50.104;20.010;2023-10-08T03:20:58;15.30;99.50
51175;DHT22;37240;50.104;20.010;2023-10-08T03:25:59;15.30;99.60
51175;DHT22;37240;50.104;20.010;2023-10-08T03:31:04;15.30;99.10
51175;DHT22;37240;50.104;20.010;2023-10-08T03:36:05;15.20;99.30
51175;DHT22;37240;50.104;20.010;2023-10-08T03:41:06;15.20;99.50
51175;DHT22;37240;50.104;20.010;2023-10-08T03:46:06;15.20;99.90
51175;DHT22;37240;50.104;20.010;2023-10-08T03:51:07;15.20;99.90
51175;DHT22;37240;50.104;20.010;2023-10-08T03:56:08;15.20;99.90
51175;DHT22;37240;50.104;20.010;2023-10-08T04:01:08;15.10;99.90
51175;DHT22;37240;50.104;20.010;2023-10-08T04:06:09;15.10;99.90
51175;DHT22;37240;50.104;20.010;2023-10-08T04:11:10;15.10;99.90
51175;DHT22;37240;50.104;20.010;2023-10-08T04:16:10;15.10;99.90
51175;DHT22;37240;50.104;20.010;2023-10-08T04:21:11;15.10;99.90
51175;DHT22;37240;50.104;20.010;2023-10-08T04:26:11;15.00;99.90
51175;DHT22;37240;50.104;20.010;2023-10-08T04:31:12;15.00;99.90
51175;DHT22;37240;50.104;20.010;2023-10-08T04:36:12;14.80;99.90
51175;DHT22;37240;50.104;20.010;2023-10-08T04:41:14;14.80;99.90
51175;DHT22;37240;50.104;20.010;2023-10-08T04:46:15;14.70;99.60
51175;DHT22;37240;50.104;20.010;2023-10-08T04:51:16;14.70;99.90
51175;DHT22;37240;50.104;20.010;2023-10-08T04:56:17;14.70;99.70
51175;DHT22;37240;50.104;20.010;2023-10-08T05:01:19;14.60;99.70
51175;DHT22;37240;50.104;20.010;2023-10-08T05:06:19;14.50;99.60
51175;DHT22;37240;50.104;20.010;2023-10-08T05:11:20;14.50;99.70
51175;DHT22;37240;50.104;20.010;2023-10-08T05:16:21;14.50;99.80
51175;DHT22;37240;50.104;20.010;2023-10-08T05:21:21;14.60;99.60
51175;DHT22;37240;50.104;20.010;2023-10-08T05:26:22;14.60;99.60
51175;DHT22;37240;50.104;20.010;2023-10-08T05:31:22;14.60;99.90
51175;DHT22;37240;50.104;20.010;2023-10-08T05:36:23;14.60;99.90
51175;DHT22;37240;50.104;20.010;2023-10-08T05:41:23;14.60;99.90
51175;DHT22;37240;50.104;20.010;2023-10-08T05:46:24;14.60;99.80
51175;DHT22;37240;50.104;20.010;2023-10-08T05:51:24;14.60;99.70
51175;DHT22;37240;50.104;20.010;2023-10-08T05:56:25;14.60;99.80
51175;DHT22;37240;50.104;20.010;2023-10-08T06:01:26;14.70;99.60
51175;DHT22;37240;50.104;20.010;2023-10-08T06:06:26;14.70;99.70
51175;DHT22;37240;50.104;20.010;2023-10-08T06:11:27;14.70;99.60
51175;DHT22;37240;50.104;20.010;2023-10-08T06:16:27;14.80;99.40
51175;DHT22;37240;50.104;20.010;2023-10-08T06:21:28;14.80;99.30
51175;DHT22;37240;50.104;20.010;2023-10-08T06:26:28;14.80;99.10
51175;DHT22;37240;50.104;20.010;2023-10-08T06:31:29;14.80;99.00
51175;DHT22;37240;50.104;20.010;2023-10-08T06:36:29;14.80;99.00
51175;DHT22;37240;50.104;20.010;2023-10-08T06:41:30;14.80;98.90
51175;DHT22;37240;50.104;20.010;2023-10-08T06:46:31;14.80;99.20
51175;DHT22;37240;50.104;20.010;2023-10-08T06:51:31;14.80;99.30
51175;DHT22;37240;50.104;20.010;2023-10-08T06:56:32;14.80;99.30
51175;DHT22;37240;50.104;20.010;2023-10-08T07:01:32;14.80;99.50
51175;DHT22;37240;50.104;20.010;2023-10-08T07:06:33;14.70;99.60
51175;DHT22;37240;50.104;20.010;2023-10-08T07:11:34;14.70;99.80
51175;DHT22;37240;50.104;20.010;2023-10-08T07:16:34;14.80;99.90
51175;DHT22;37240;50.104;20.010;2023-10-08T07:21:35;14.80;99.90
51175;DHT22;37240;50.104;20.010;2023-10-08T07:26:35;14.90;99.80
51175;DHT22;37240;50.104;20.010;2023-10-08T07:31:37;15.00;99.80
51175;DHT22;37240;50.104;20.010;2023-10-08T07:36:38;15.10;99.20
51175;DHT22;37240;50.104;20.010;2023-10-08T07:41:39;15.30;99.10
51175;DHT22;37240;50.104;20.010;2023-10-08T07:46:39;15.60;98.80
51175;DHT22;37240;50.104;20.010;2023-10-08T07:51:40;15.80;98.60
51175;DHT22;37240;50.104;20.010;2023-10-08T07:56:41;16.20;98.80
51175;DHT22;37240;50.104;20.010;2023-10-08T08:01:42;16.40;96.90
51175;DHT22;37240;50.104;20.010;2023-10-08T08:06:43;16.50;96.40
51175;DHT22;37240;50.104;20.010;2023-10-08T08:11:44;16.50;96.20
51175;DHT22;37240;50.104;20.010;2023-10-08T08:16:44;16.70;95.60
51175;DHT22;37240;50.104;20.010;2023-10-08T08:21:45;17.20;95.20
51175;DHT22;37240;50.104;20.010;2023-10-08T08:26:45;17.80;94.00
51175;DHT22;37240;50.104;20.010;2023-10-08T08:31:46;18.40;92.80
51175;DHT22;37240;50.104;20.010;2023-10-08T08:36:46;18.60;91.40
51175;DHT22;37240;50.104;20.010;2023-10-08T08:41:47;18.30;90.20
51175;DHT22;37240;50.104;20.010;2023-10-08T08:46:48;18.30;89.30
51175;DHT22;37240;50.104;20.010;2023-10-08T08:51:50;18.40;87.40
51175;DHT22;37240;50.104;20.010;2023-10-08T08:56:52;18.60;83.40
51175;DHT22;37240;50.104;20.010;2023-10-08T09:01:54;18.80;81.30
51175;DHT22;37240;50.104;20.010;2023-10-08T09:06:55;18.60;74.10
51175;DHT22;37240;50.104;20.010;2023-10-08T09:11:55;18.50;73.90
51175;DHT22;37240;50.104;20.010;2023-10-08T09:16:56;18.60;72.80
51175;DHT22;37240;50.104;20.010;2023-10-08T09:22:04;18.60;71.50
51175;DHT22;37240;50.104;20.010;2023-10-08T09:27:06;18.60;73.80
51175;DHT22;37240;50.104;20.010;2023-10-08T09:32:12;18.50;71.30
51175;DHT22;37240;50.104;20.010;2023-10-08T09:37:12;18.60;71.50
51175;DHT22;37240;50.104;20.010;2023-10-08T09:42:13;18.50;65.10
51175;DHT22;37240;50.104;20.010;2023-10-08T09:47:20;18.30;64.30
51175;DHT22;37240;50.104;20.010;2023-10-08T09:52:33;18.30;64.70
51175;DHT22;37240;50.104;20.010;2023-10-08T09:57:34;18.00;59.10
51175;DHT22;37240;50.104;20.010;2023-10-08T10:02:35;18.00;60.30
51175;DHT22;37240;50.104;20.010;2023-10-08T10:07:35;17.80;61.90
51175;DHT22;37240;50.104;20.010;2023-10-08T10:12:36;17.80;61.40
51175;DHT22;37240;50.104;20.010;2023-10-08T10:17:36;17.80;61.60
51175;DHT22;37240;50.104;20.010;2023-10-08T10:22:37;17.80;63.10
51175;DHT22;37240;50.104;20.010;2023-10-08T10:27:38;17.60;64.50
51175;DHT22;37240;50.104;20.010;2023-10-08T10:32:38;17.40;65.30
51175;DHT22;37240;50.104;20.010;2023-10-08T10:37:39;17.40;63.70
51175;DHT22;37240;50.104;20.010;2023-10-08T10:42:40;17.30;63.50
51175;DHT22;37240;50.104;20.010;2023-10-08T10:47:44;17.20;60.90
51175;DHT22;37240;50.104;20.010;2023-10-08T10:52:45;17.10;59.30
51175;DHT22;37240;50.104;20.010;2023-10-08T10:57:56;17.10;59.00
51175;DHT22;37240;50.104;20.010;2023-10-08T11:02:57;17.00;60.40
51175;DHT22;37240;50.104;20.010;2023-10-08T11:07:59;16.80;59.60
51175;DHT22;37240;50.104;20.010;2023-10-08T11:13:01;16.70;60.00
51175;DHT22;37240;50.104;20.010;2023-10-08T11:18:01;16.70;59.40
51175;DHT22;37240;50.104;20.010;2023-10-08T11:23:02;16.70;55.20
51175;DHT22;37240;50.104;20.010;2023-10-08T11:28:02;16.70;55.70
51175;DHT22;37240;50.104;20.010;2023-10-08T11:33:03;16.60;54.80
51175;DHT22;37240;50.104;20.010;2023-10-08T11:38:04;16.60;56.20
51175;DHT22;37240;50.104;20.010;2023-10-08T11:43:05;16.60;55.90
51175;DHT22;37240;50.104;20.010;2023-10-08T11:48:06;16.50;56.20
51175;DHT22;37240;50.104;20.010;2023-10-08T11:53:06;16.50;57.70
51175;DHT22;37240;50.104;20.010;2023-10-08T11:58:07;16.50;57.80
51175;DHT22;37240;50.104;20.010;2023-10-08T12:03:08;16.40;55.50
51175;DHT22;37240;50.104;20.010;2023-10-08T12:08:08;16.30;51.80
51175;DHT22;37240;50.104;20.010;2023-10-08T12:13:09;16.30;51.40
51175;DHT22;37240;50.104;20.010;2023-10-08T12:18:10;16.20;49.90
51175;DHT22;37240;50.104;20.010;2023-10-08T12:23:11;16.20;51.70
51175;DHT22;37240;50.104;20.010;2023-10-08T12:28:12;16.00;50.90
51175;DHT22;37240;50.104;20.010;2023-10-08T12:33:12;15.90;51.30
51175;DHT22;37240;50.104;20.010;2023-10-08T12:38:13;15.80;53.70
51175;DHT22;37240;50.104;20.010;2023-10-08T12:43:14;15.80;53.40
51175;DHT22;37240;50.104;20.010;2023-10-08T12:48:15;15.70;53.80
51175;DHT22;37240;50.104;20.010;2023-10-08T12:53:15;15.70;54.10
51175;DHT22;37240;50.104;20.010;2023-10-08T12:58:16;15.60;51.40
51175;DHT22;37240;50.104;20.010;2023-10-08T13:03:16;15.50;52.30
51175;DHT22;37240;50.104;20.010;2023-10-08T13:08:17;15.60;53.50
51175;DHT22;37240;50.104;20.010;2023-10-08T13:13:17;15.80;53.30
51175;DHT22;37240;50.104;20.010;2023-10-08T13:18:18;15.90;53.60
51175;DHT22;37240;50.104;20.010;2023-10-08T13:23:19;15.80;53.40
51175;DHT22;37240;50.104;20.010;2023-10-08T13:28:21;15.80;53.60
51175;DHT22;37240;50.104;20.010;2023-10-08T13:33:22;15.70;50.60
51175;DHT22;37240;50.104;20.010;2023-10-08T13:38:23;15.70;50.70
51175;DHT22;37240;50.104;20.010;2023-10-08T13:43:23;15.60;50.70
51175;DHT22;37240;50.104;20.010;2023-10-08T13:48:24;15.40;52.50
51175;DHT22;37240;50.104;20.010;2023-10-08T13:53:24;15.60;52.60
51175;DHT22;37240;50.104;20.010;2023-10-08T13:58:25;15.50;52.10
51175;DHT22;37240;50.104;20.010;2023-10-08T14:03:26;15.50;52.80
51175;DHT22;37240;50.104;20.010;2023-10-08T14:08:28;15.50;52.30
51175;DHT22;37240;50.104;20.010;2023-10-08T14:13:32;15.30;51.80
51175;DHT22;37240;50.104;20.010;2023-10-08T14:18:32;15.40;51.70
51175;DHT22;37240;50.104;20.010;2023-10-08T14:23:33;15.30;49.70
51175;DHT22;37240;50.104;20.010;2023-10-08T14:28:34;15.30;49.30
51175;DHT22;37240;50.104;20.010;2023-10-08T14:33:35;15.30;47.90
51175;DHT22;37240;50.104;20.010;2023-10-08T14:38:35;15.30;48.40
51175;DHT22;37240;50.104;20.010;2023-10-08T14:43:36;15.30;48.90
51175;DHT22;37240;50.104;20.010;2023-10-08T14:48:36;15.20;49.30
51175;DHT22;37240;50.104;20.010;2023-10-08T14:53:37;15.10;50.90
51175;DHT22;37240;50.104;20.010;2023-10-08T14:58:37;15.20;51.80
51175;DHT22;37240;50.104;20.010;2023-10-08T15:03:38;15.10;52.60
51175;DHT22;37240;50.104;20.010;2023-10-08T15:08:39;15.00;52.70
51175;DHT22;37240;50.104;20.010;2023-10-08T15:13:39;15.00;52.80
51175;DHT22;37240;50.104;20.010;2023-10-08T15:18:40;14.90;53.00
51175;DHT22;37240;50.104;20.010;2023-10-08T15:23:40;14.90;53.40
51175;DHT22;37240;50.104;20.010;2023-10-08T15:28:41;14.80;53.10
51175;DHT22;37240;50.104;20.010;2023-10-08T15:33:41;14.70;53.40
51175;DHT22;37240;50.104;20.010;2023-10-08T15:38:42;14.60;52.70
51175;DHT22;37240;50.104;20.010;2023-10-08T15:43:43;14.60;53.10
51175;DHT22;37240;50.104;20.010;2023-10-08T15:48:43;14.50;53.10
51175;DHT22;37240;50.104;20.010;2023-10-08T15:53:44;14.30;53.00
51175;DHT22;37240;50.104;20.010;2023-10-08T15:58:44;14.30;53.60
51175;DHT22;37240;50.104;20.010;2023-10-08T16:03:45;14.20;53.70
51175;DHT22;37240;50.104;20.010;2023-10-08T16:08:46;14.10;54.30
51175;DHT22;37240;50.104;20.010;2023-10-08T16:13:46;14.00;54.90
51175;DHT22;37240;50.104;20.010;2023-10-08T16:18:47;13.90;55.80
51175;DHT22;37240;50.104;20.010;2023-10-08T16:23:47;13.90;56.20
51175;DHT22;37240;50.104;20.010;2023-10-08T16:28:48;13.80;57.20
51175;DHT22;37240;50.104;20.010;2023-10-08T16:33:48;13.80;57.80
51175;DHT22;37240;50.104;20.010;2023-10-08T16:38:49;13.70;59.40
51175;DHT22;37240;50.104;20.010;2023-10-08T16:43:49;13.50;59.60
51175;DHT22;37240;50.104;20.010;2023-10-08T16:48:50;13.30;60.80
51175;DHT22;37240;50.104;20.010;2023-10-08T16:53:51;13.20;62.60
51175;DHT22;37240;50.104;20.010;2023-10-08T16:58:51;13.10;63.50
51175;DHT22;37240;50.104;20.010;2023-10-08T17:03:52;13.00;63.60
51175;DHT22;37240;50.104;20.010;2023-10-08T17:08:52;12.80;63.50
51175;DHT22;37240;50.104;20.010;2023-10-08T17:13:53;12.80;64.20
51175;DHT22;37240;50.104;20.010;2023-10-08T17:18:54;12.70;64.30
51175;DHT22;37240;50.104;20.010;2023-10-08T17:23:54;12.70;64.90
51175;DHT22;37240;50.104;20.010;2023-10-08T17:28:55;12.50;65.30
51175;DHT22;37240;50.104;20.010;2023-10-08T17:33:56;12.40;65.90
51175;DHT22;37240;50.104;20.010;2023-10-08T17:38:56;12.40;66.10
51175;DHT22;37240;50.104;20.010;2023-10-08T17:43:57;12.40;66.60
51175;DHT22;37240;50.104;20.010;2023-10-08T17:48:58;12.40;67.60
51175;DHT22;37240;50.104;20.010;2023-10-08T17:53:58;12.30;68.40
51175;DHT22;37240;50.104;20.010;2023-10-08T17:58:59;12.20;68.60
51175;DHT22;37240;50.104;20.010;2023-10-08T18:04:00;12.20;68.70
51175;DHT22;37240;50.104;20.010;2023-10-08T18:09:00;12.20;69.20
51175;DHT22;37240;50.104;20.010;2023-10-08T18:14:01;12.20;69.50
51175;DHT22;37240;50.104;20.010;2023-10-08T18:19:01;12.10;69.90
51175;DHT22;37240;50.104;20.010;2023-10-08T18:24:02;12.10;69.70
51175;DHT22;37240;50.104;20.010;2023-10-08T18:29:03;12.10;70.00
51175;DHT22;37240;50.104;20.010;2023-10-08T18:34:03;12.10;70.50
51175;DHT22;37240;50.104;20.010;2023-10-08T18:39:04;12.00;70.60
51175;DHT22;37240;50.104;20.010;2023-10-08T18:44:04;12.00;71.40
51175;DHT22;37240;50.104;20.010;2023-10-08T18:49:06;11.90;71.60
51175;DHT22;37240;50.104;20.010;2023-10-08T18:54:06;11.80;72.00
51175;DHT22;37240;50.104;20.010;2023-10-08T18:59:07;11.70;72.60
51175;DHT22;37240;50.104;20.010;2023-10-08T19:04:08;11.70;73.10
51175;DHT22;37240;50.104;20.010;2023-10-08T19:09:09;11.60;73.30
51175;DHT22;37240;50.104;20.010;2023-10-08T19:14:10;11.60;73.70
51175;DHT22;37240;50.104;20.010;2023-10-08T19:19:11;11.50;74.30
51175;DHT22;37240;50.104;20.010;2023-10-08T19:24:11;11.50;74.70
51175;DHT22;37240;50.104;20.010;2023-10-08T19:29:12;11.40;75.30
51175;DHT22;37240;50.104;20.010;2023-10-08T19:34:12;11.40;76.00
51175;DHT22;37240;50.104;20.010;2023-10-08T19:39:13;11.30;76.60
51175;DHT22;37240;50.104;20.010;2023-10-08T19:44:13;11.30;77.20
51175;DHT22;37240;50.104;20.010;2023-10-08T19:49:14;11.30;77.60
51175;DHT22;37240;50.104;20.010;2023-10-08T19:54:15;11.20;78.20
51175;DHT22;37240;50.104;20.010;2023-10-08T19:59:16;11.10;78.60
51175;DHT22;37240;50.104;20.010;2023-10-08T20:04:16;11.10;79.50
51175;DHT22;37240;50.104;20.010;2023-10-08T20:09:17;11.00;80.30
51175;DHT22;37240;50.104;20.010;2023-10-08T20:14:17;10.90;81.00
51175;DHT22;37240;50.104;20.010;2023-10-08T20:19:18;10.80;81.90
51175;DHT22;37240;50.104;20.010;2023-10-08T20:24:18;10.80;82.30
51175;DHT22;37240;50.104;20.010;2023-10-08T20:29:19;10.70;81.80
51175;DHT22;37240;50.104;20.010;2023-10-08T20:34:19;10.80;82.00
51175;DHT22;37240;50.104;20.010;2023-10-08T20:39:20;10.80;82.10
51175;DHT22;37240;50.104;20.010;2023-10-08T20:44:20;10.80;82.10
51175;DHT22;37240;50.104;20.010;2023-10-08T20:49:21;10.80;82.20
51175;DHT22;37240;50.104;20.010;2023-10-08T20:54:21;10.70;82.90
51175;DHT22;37240;50.104;20.010;2023-10-08T20:59:22;10.80;82.90
51175;DHT22;37240;50.104;20.010;2023-10-08T21:04:23;10.70;83.30
51175;DHT22;37240;50.104;20.010;2023-10-08T21:09:23;10.70;83.50
51175;DHT22;37240;50.104;20.010;2023-10-08T21:14:24;10.60;84.50
51175;DHT22;37240;50.104;20.010;2023-10-08T21:19:25;10.60;84.30
51175;DHT22;37240;50.104;20.010;2023-10-08T21:24:26;10.50;84.90
51175;DHT22;37240;50.104;20.010;2023-10-08T21:29:26;10.60;84.80
51175;DHT22;37240;50.104;20.010;2023-10-08T21:34:27;10.60;85.40
51175;DHT22;37240;50.104;20.010;2023-10-08T21:39:31;10.60;85.40
51175;DHT22;37240;50.104;20.010;2023-10-08T21:44:31;10.50;85.70
51175;DHT22;37240;50.104;20.010;2023-10-08T21:49:32;10.50;86.60
51175;DHT22;37240;50.104;20.010;2023-10-08T21:54:33;10.40;87.40
51175;DHT22;37240;50.104;20.010;2023-10-08T21:59:33;10.40;88.20
51175;DHT22;37240;50.104;20.010;2023-10-08T22:04:34;10.40;88.40
51175;DHT22;37240;50.104;20.010;2023-10-08T22:09:34;10.40;88.70
51175;DHT22;37240;50.104;20.010;2023-10-08T22:14:35;10.30;88.90
51175;DHT22;37240;50.104;20.010;2023-10-08T22:19:35;10.30;89.50
51175;DHT22;37240;50.104;20.010;2023-10-08T22:24:36;10.30;89.50
51175;DHT22;37240;50.104;20.010;2023-10-08T22:29:36;10.30;89.80
51175;DHT22;37240;50.104;20.010;2023-10-08T22:34:37;10.20;90.10
51175;DHT22;37240;50.104;20.010;2023-10-08T22:39:37;10.20;90.30
51175;DHT22;37240;50.104;20.010;2023-10-08T22:44:38;10.20;90.20
51175;DHT22;37240;50.104;20.010;2023-10-08T22:49:39;10.10;90.20
51175;DHT22;37240;50.104;20.010;2023-10-08T22:54:39;10.10;90.40
51175;DHT22;37240;50.104;20.010;2023-10-08T22:59:40;10.10;90.70
51175;DHT22;37240;50.104;20.010;2023-10-08T23:04:40;10.00;91.00
51175;DHT22;37240;50.104;20.010;2023-10-08T23:09:41;10.00;90.90
51175;DHT22;37240;50.104;20.010;2023-10-08T23:14:42;10.00;91.10
51175;DHT22;37240;50.104;20.010;2023-10-08T23:19:42;10.00;91.10
51175;DHT22;37240;50.104;20.010;2023-10-08T23:24:43;10.00;91.40
51175;DHT22;37240;50.104;20.010;2023-10-08T23:29:43;10.00;91.50
51175;DHT22;37240;50.104;20.010;2023-10-08T23:34:44;10.00;91.60
51175;DHT22;37240;50.104;20.010;2023-10-08T23:39:44;10.00;91.70
51175;DHT22;37240;50.104;20.010;2023-10-08T23:44:45;9.90;91.90
51175;DHT22;37240;50.104;20.010;2023-10-08T23:49:45;9.90;91.90
51175;DHT22;37240;50.104;20.010;2023-10-08T23:54:46;9.80;92.10
51175;DHT22;37240;50.104;20.010;2023-10-08T23:59:46;9.70;92.20
